sensor_id;sensor_type;location;lat;lon;timestamp;P1;durP1;ratioP1;P2;durP2;ratioP2
53549;SDS011;73079;52.914;-0.982;2023-11-19T00:00:07;36.60;;;8.45;;
53549;SDS011;73079;52.914;-0.982;2023-11-19T00:02:39;34.38;;;7.53;;
53549;SDS011;73079;52.914;-0.982;2023-11-19T00:05:05;42.03;;;9.07;;
53549;SDS011;73079;52.914;-0.982;2023-11-19T00:07:36;34.40;;;7.85;;
53549;SDS011;73079;52.914;-0.982;2023-11-19T00:10:02;32.47;;;6.90;;
53549;SDS011;73079;52.914;-0.982;2023-11-19T00:12:32;41.58;;;8.57;;
53549;SDS011;73079;52.914;-0.982;2023-11-19T00:14:58;35.67;;;8.40;;
53549;SDS011;73079;52.914;-0.982;2023-11-19T00:17:24;33.55;;;8.35;;
53549;SDS011;73079;52.914;-0.982;2023-11-19T00:19:51;29.45;;;7.65;;
53549;SDS011;73079;52.914;-0.982;2023-11-19T00:22:17;30.55;;;8.73;;
53549;SDS011;73079;52.914;-0.982;2023-11-19T00:24:43;32.47;;;7.35;;
53549;SDS011;73079;52.914;-0.982;2023-11-19T00:27:10;32.33;;;7.75;;
53549;SDS011;73079;52.914;-0.982;2023-11-19T00:29:36;38.72;;;8.52;;
53549;SDS011;73079;52.914;-0.982;2023-11-19T00:32:03;37.50;;;8.27;;
53549;SDS011;73079;52.914;-0.982;2023-11-19T00:34:31;32.40;;;7.88;;
53549;SDS011;73079;52.914;-0.982;2023-11-19T00:36:58;33.03;;;7.70;;
53549;SDS011;73079;52.914;-0.982;2023-11-19T00:39:26;34.33;;;7.90;;
53549;SDS011;73079;52.914;-0.982;2023-11-19T00:41:52;30.52;;;7.82;;
53549;SDS011;73079;52.914;-0.982;2023-11-19T00:44:18;37.25;;;8.23;;
53549;SDS011;73079;52.914;-0.982;2023-11-19T00:46:45;30.90;;;7.18;;
53549;SDS011;73079;52.914;-0.982;2023-11-19T00:49:11;32.90;;;7.68;;
53549;SDS011;73079;52.914;-0.982;2023-11-19T00:51:38;32.63;;;7.57;;
53549;SDS011;73079;52.914;-0.982;2023-11-19T00:54:06;30.83;;;6.80;;
53549;SDS011;73079;52.914;-0.982;2023-11-19T00:56:32;34.67;;;8.65;;
53549;SDS011;73079;52.914;-0.982;2023-11-19T00:58:58;37.85;;;8.38;;
53549;SDS011;73079;52.914;-0.982;2023-11-19T01:01:25;43.22;;;8.82;;
53549;SDS011;73079;52.914;-0.982;2023-11-19T01:03:51;35.35;;;7.80;;
53549;SDS011;73079;52.914;-0.982;2023-11-19T01:06:26;33.75;;;8.07;;
53549;SDS011;73079;52.914;-0.982;2023-11-19T01:08:52;32.45;;;7.40;;
53549;SDS011;73079;52.914;-0.982;2023-11-19T01:11:23;30.17;;;7.05;;
53549;SDS011;73079;52.914;-0.982;2023-11-19T01:13:53;33.65;;;8.32;;
53549;SDS011;73079;52.914;-0.982;2023-11-19T01:16:23;25.65;;;7.07;;
53549;SDS011;73079;52.914;-0.982;2023-11-19T01:18:53;38.05;;;8.77;;
53549;SDS011;73079;52.914;-0.982;2023-11-19T01:21:22;33.47;;;7.60;;
53549;SDS011;73079;52.914;-0.982;2023-11-19T01:23:49;36.38;;;8.60;;
53549;SDS011;73079;52.914;-0.982;2023-11-19T01:26:20;30.00;;;7.45;;
53549;SDS011;73079;52.914;-0.982;2023-11-19T01:28:51;36.40;;;8.20;;
53549;SDS011;73079;52.914;-0.982;2023-11-19T01:31:20;40.15;;;8.13;;
53549;SDS011;73079;52.914;-0.982;2023-11-19T01:33:48;35.00;;;8.15;;
53549;SDS011;73079;52.914;-0.982;2023-11-19T01:36:16;39.67;;;8.38;;
53549;SDS011;73079;52.914;-0.982;2023-11-19T01:38:45;33.13;;;8.30;;
53549;SDS011;73079;52.914;-0.982;2023-11-19T01:41:13;37.00;;;7.90;;
53549;SDS011;73079;52.914;-0.982;2023-11-19T01:43:40;32.50;;;7.65;;
53549;SDS011;73079;52.914;-0.982;2023-11-19T01:46:07;34.58;;;8.57;;
53549;SDS011;73079;52.914;-0.982;2023-11-19T01:48:36;38.20;;;9.23;;
53549;SDS011;73079;52.914;-0.982;2023-11-19T01:51:06;35.22;;;8.77;;
53549;SDS011;73079;52.914;-0.982;2023-11-19T01:53:33;32.17;;;7.65;;
53549;SDS011;73079;52.914;-0.982;2023-11-19T01:56:01;35.08;;;9.27;;
53549;SDS011;73079;52.914;-0.982;2023-11-19T01:58:29;40.55;;;8.95;;
53549;SDS011;73079;52.914;-0.982;2023-11-19T02:00:57;41.10;;;7.53;;
53549;SDS011;73079;52.914;-0.982;2023-11-19T02:03:23;40.00;;;10.65;;
53549;SDS011;73079;52.914;-0.982;2023-11-19T02:05:51;41.25;;;8.57;;
53549;SDS011;73079;52.914;-0.982;2023-11-19T02:08:18;36.88;;;7.93;;
53549;SDS011;73079;52.914;-0.982;2023-11-19T02:10:45;32.42;;;7.47;;
53549;SDS011;73079;52.914;-0.982;2023-11-19T02:13:11;42.03;;;8.75;;
53549;SDS011;73079;52.914;-0.982;2023-11-19T02:15:40;34.05;;;7.93;;
53549;SDS011;73079;52.914;-0.982;2023-11-19T02:18:20;34.88;;;7.88;;
53549;SDS011;73079;52.914;-0.982;2023-11-19T02:20:48;35.78;;;6.70;;
53549;SDS011;73079;52.914;-0.982;2023-11-19T02:23:14;39.63;;;7.60;;
53549;SDS011;73079;52.914;-0.982;2023-11-19T02:25:40;35.30;;;8.10;;
53549;SDS011;73079;52.914;-0.982;2023-11-19T02:28:09;47.65;;;9.52;;
53549;SDS011;73079;52.914;-0.982;2023-11-19T02:30:37;37.03;;;8.00;;
53549;SDS011;73079;52.914;-0.982;2023-11-19T02:33:03;36.83;;;7.10;;
53549;SDS011;73079;52.914;-0.982;2023-11-19T02:35:32;34.15;;;8.25;;
53549;SDS011;73079;52.914;-0.982;2023-11-19T02:37:59;38.17;;;7.93;;
53549;SDS011;73079;52.914;-0.982;2023-11-19T02:40:26;32.83;;;8.52;;
53549;SDS011;73079;52.914;-0.982;2023-11-19T02:42:52;46.22;;;9.07;;
53549;SDS011;73079;52.914;-0.982;2023-11-19T02:45:19;39.10;;;8.70;;
53549;SDS011;73079;52.914;-0.982;2023-11-19T02:47:47;34.38;;;8.07;;
53549;SDS011;73079;52.914;-0.982;2023-11-19T02:50:13;34.42;;;7.93;;
53549;SDS011;73079;52.914;-0.982;2023-11-19T02:52:40;32.05;;;7.47;;
53549;SDS011;73079;52.914;-0.982;2023-11-19T02:55:06;41.83;;;8.25;;
53549;SDS011;73079;52.914;-0.982;2023-11-19T02:57:35;35.92;;;8.00;;
53549;SDS011;73079;52.914;-0.982;2023-11-19T03:00:02;36.13;;;8.23;;
53549;SDS011;73079;52.914;-0.982;2023-11-19T03:02:40;42.25;;;8.68;;
53549;SDS011;73079;52.914;-0.982;2023-11-19T03:05:11;33.72;;;7.45;;
53549;SDS011;73079;52.914;-0.982;2023-11-19T03:07:41;33.75;;;8.85;;
53549;SDS011;73079;52.914;-0.982;2023-11-19T03:10:08;35.13;;;7.10;;
53549;SDS011;73079;52.914;-0.982;2023-11-19T03:12:37;32.63;;;7.05;;
53549;SDS011;73079;52.914;-0.982;2023-11-19T03:15:04;32.53;;;7.80;;
53549;SDS011;73079;52.914;-0.982;2023-11-19T03:17:31;35.35;;;7.28;;
53549;SDS011;73079;52.914;-0.982;2023-11-19T03:20:00;30.80;;;6.07;;
53549;SDS011;73079;52.914;-0.982;2023-11-19T03:22:28;29.00;;;6.72;;
53549;SDS011;73079;52.914;-0.982;2023-11-19T03:24:55;32.05;;;6.88;;
53549;SDS011;73079;52.914;-0.982;2023-11-19T03:27:21;29.27;;;6.10;;
53549;SDS011;73079;52.914;-0.982;2023-11-19T03:29:48;26.65;;;6.65;;
53549;SDS011;73079;52.914;-0.982;2023-11-19T03:32:16;28.20;;;7.22;;
53549;SDS011;73079;52.914;-0.982;2023-11-19T03:34:42;36.10;;;7.28;;
53549;SDS011;73079;52.914;-0.982;2023-11-19T03:37:10;23.10;;;5.95;;
53549;SDS011;73079;52.914;-0.982;2023-11-19T03:39:36;29.52;;;6.60;;
53549;SDS011;73079;52.914;-0.982;2023-11-19T03:42:02;28.63;;;6.38;;
53549;SDS011;73079;52.914;-0.982;2023-11-19T03:44:28;28.77;;;6.45;;
53549;SDS011;73079;52.914;-0.982;2023-11-19T03:46:55;28.85;;;6.07;;
53549;SDS011;73079;52.914;-0.982;2023-11-19T03:49:20;28.42;;;6.28;;
53549;SDS011;73079;52.914;-0.982;2023-11-19T03:51:47;27.80;;;6.32;;
53549;SDS011;73079;52.914;-0.982;2023-11-19T03:54:14;23.00;;;5.72;;
53549;SDS011;73079;52.914;-0.982;2023-11-19T03:56:41;23.13;;;5.65;;
53549;SDS011;73079;52.914;-0.982;2023-11-19T03:59:07;22.85;;;5.80;;
53549;SDS011;73079;52.914;-0.982;2023-11-19T04:01:35;27.25;;;6.40;;
53549;SDS011;73079;52.914;-0.982;2023-11-19T04:04:03;22.83;;;5.40;;
53549;SDS011;73079;52.914;-0.982;2023-11-19T04:06:29;30.77;;;6.07;;
53549;SDS011;73079;52.914;-0.982;2023-11-19T04:08:55;20.35;;;5.50;;
53549;SDS011;73079;52.914;-0.982;2023-11-19T04:11:22;25.95;;;5.43;;
53549;SDS011;73079;52.914;-0.982;2023-11-19T04:13:48;27.83;;;5.68;;
53549;SDS011;73079;52.914;-0.982;2023-11-19T04:16:14;29.27;;;6.22;;
53549;SDS011;73079;52.914;-0.982;2023-11-19T04:18:40;21.92;;;4.90;;
53549;SDS011;73079;52.914;-0.982;2023-11-19T04:21:06;23.45;;;5.10;;
53549;SDS011;73079;52.914;-0.982;2023-11-19T04:23:35;23.00;;;6.90;;
53549;SDS011;73079;52.914;-0.982;2023-11-19T04:26:02;28.25;;;6.53;;
53549;SDS011;73079;52.914;-0.982;2023-11-19T04:28:33;26.45;;;6.35;;
53549;SDS011;73079;52.914;-0.982;2023-11-19T04:30:59;33.75;;;7.07;;
53549;SDS011;73079;52.914;-0.982;2023-11-19T04:33:25;25.92;;;5.78;;
53549;SDS011;73079;52.914;-0.982;2023-11-19T04:35:51;27.17;;;5.97;;
53549;SDS011;73079;52.914;-0.982;2023-11-19T04:38:19;35.05;;;6.57;;
53549;SDS011;73079;52.914;-0.982;2023-11-19T04:40:48;30.95;;;6.97;;
53549;SDS011;73079;52.914;-0.982;2023-11-19T04:43:13;32.78;;;6.95;;
53549;SDS011;73079;52.914;-0.982;2023-11-19T04:45:42;34.10;;;8.05;;
53549;SDS011;73079;52.914;-0.982;2023-11-19T04:48:08;30.95;;;7.00;;
53549;SDS011;73079;52.914;-0.982;2023-11-19T04:50:34;23.42;;;5.63;;
53549;SDS011;73079;52.914;-0.982;2023-11-19T04:53:00;36.15;;;6.30;;
53549;SDS011;73079;52.914;-0.982;2023-11-19T04:55:26;32.38;;;7.03;;
53549;SDS011;73079;52.914;-0.982;2023-11-19T04:57:53;36.25;;;7.28;;
53549;SDS011;73079;52.914;-0.982;2023-11-19T05:00:19;35.33;;;6.57;;
53549;SDS011;73079;52.914;-0.982;2023-11-19T05:02:48;38.95;;;8.13;;
53549;SDS011;73079;52.914;-0.982;2023-11-19T05:05:16;34.72;;;7.72;;
53549;SDS011;73079;52.914;-0.982;2023-11-19T05:07:42;35.35;;;6.55;;
53549;SDS011;73079;52.914;-0.982;2023-11-19T05:10:08;33.70;;;6.57;;
53549;SDS011;73079;52.914;-0.982;2023-11-19T05:12:35;34.45;;;6.63;;
53549;SDS011;73079;52.914;-0.982;2023-11-19T05:15:01;31.30;;;5.97;;
53549;SDS011;73079;52.914;-0.982;2023-11-19T05:17:27;31.40;;;7.07;;
53549;SDS011;73079;52.914;-0.982;2023-11-19T05:19:54;24.48;;;6.47;;
53549;SDS011;73079;52.914;-0.982;2023-11-19T05:22:20;30.15;;;6.18;;
53549;SDS011;73079;52.914;-0.982;2023-11-19T05:24:46;27.65;;;6.13;;
53549;SDS011;73079;52.914;-0.982;2023-11-19T05:27:13;29.80;;;6.47;;
53549;SDS011;73079;52.914;-0.982;2023-11-19T05:29:39;28.15;;;6.88;;
53549;SDS011;73079;52.914;-0.982;2023-11-19T05:32:06;30.80;;;7.35;;
53549;SDS011;73079;52.914;-0.982;2023-11-19T05:34:32;28.52;;;6.13;;
53549;SDS011;73079;52.914;-0.982;2023-11-19T05:36:59;28.00;;;6.25;;
53549;SDS011;73079;52.914;-0.982;2023-11-19T05:39:25;27.30;;;5.85;;
53549;SDS011;73079;52.914;-0.982;2023-11-19T05:41:51;28.58;;;5.15;;
53549;SDS011;73079;52.914;-0.982;2023-11-19T05:44:17;25.30;;;5.25;;
53549;SDS011;73079;52.914;-0.982;2023-11-19T05:46:44;26.98;;;6.45;;
53549;SDS011;73079;52.914;-0.982;2023-11-19T05:49:10;22.27;;;5.22;;
53549;SDS011;73079;52.914;-0.982;2023-11-19T05:51:37;26.65;;;5.82;;
53549;SDS011;73079;52.914;-0.982;2023-11-19T05:54:06;25.35;;;5.10;;
53549;SDS011;73079;52.914;-0.982;2023-11-19T05:56:32;24.45;;;5.43;;
53549;SDS011;73079;52.914;-0.982;2023-11-19T05:58:58;22.63;;;5.65;;
53549;SDS011;73079;52.914;-0.982;2023-11-19T06:01:29;19.20;;;5.20;;
53549;SDS011;73079;52.914;-0.982;2023-11-19T06:03:54;22.08;;;5.43;;
53549;SDS011;73079;52.914;-0.982;2023-11-19T06:06:21;23.25;;;4.90;;
53549;SDS011;73079;52.914;-0.982;2023-11-19T06:08:47;26.48;;;5.47;;
53549;SDS011;73079;52.914;-0.982;2023-11-19T06:11:15;17.17;;;4.45;;
53549;SDS011;73079;52.914;-0.982;2023-11-19T06:13:43;20.55;;;4.75;;
53549;SDS011;73079;52.914;-0.982;2023-11-19T06:16:10;21.95;;;5.00;;
53549;SDS011;73079;52.914;-0.982;2023-11-19T06:18:36;20.48;;;4.75;;
53549;SDS011;73079;52.914;-0.982;2023-11-19T06:21:02;24.88;;;4.53;;
53549;SDS011;73079;52.914;-0.982;2023-11-19T06:23:28;25.80;;;5.07;;
53549;SDS011;73079;52.914;-0.982;2023-11-19T06:25:54;25.52;;;5.03;;
53549;SDS011;73079;52.914;-0.982;2023-11-19T06:28:21;21.75;;;4.97;;
53549;SDS011;73079;52.914;-0.982;2023-11-19T06:30:47;20.30;;;4.97;;
53549;SDS011;73079;52.914;-0.982;2023-11-19T06:33:13;18.80;;;3.88;;
53549;SDS011;73079;52.914;-0.982;2023-11-19T06:35:39;14.98;;;4.03;;
53549;SDS011;73079;52.914;-0.982;2023-11-19T06:38:05;23.45;;;4.38;;
53549;SDS011;73079;52.914;-0.982;2023-11-19T06:40:31;19.55;;;5.22;;
53549;SDS011;73079;52.914;-0.982;2023-11-19T06:42:58;17.92;;;4.13;;
53549;SDS011;73079;52.914;-0.982;2023-11-19T06:45:26;19.55;;;4.78;;
53549;SDS011;73079;52.914;-0.982;2023-11-19T06:47:52;23.98;;;5.18;;
53549;SDS011;73079;52.914;-0.982;2023-11-19T06:50:18;20.05;;;4.38;;
53549;SDS011;73079;52.914;-0.982;2023-11-19T06:52:45;22.50;;;4.97;;
53549;SDS011;73079;52.914;-0.982;2023-11-19T06:55:11;23.55;;;4.28;;
53549;SDS011;73079;52.914;-0.982;2023-11-19T06:57:37;16.08;;;3.90;;
53549;SDS011;73079;52.914;-0.982;2023-11-19T07:00:03;21.95;;;4.65;;
53549;SDS011;73079;52.914;-0.982;2023-11-19T07:02:32;23.27;;;5.07;;
53549;SDS011;73079;52.914;-0.982;2023-11-19T07:04:58;22.20;;;5.53;;
53549;SDS011;73079;52.914;-0.982;2023-11-19T07:07:25;22.80;;;4.55;;
53549;SDS011;73079;52.914;-0.982;2023-11-19T07:09:51;23.45;;;4.88;;
53549;SDS011;73079;52.914;-0.982;2023-11-19T07:12:17;22.00;;;4.93;;
53549;SDS011;73079;52.914;-0.982;2023-11-19T07:14:43;19.42;;;4.80;;
53549;SDS011;73079;52.914;-0.982;2023-11-19T07:17:09;23.63;;;5.10;;
53549;SDS011;73079;52.914;-0.982;2023-11-19T07:19:37;19.52;;;3.88;;
53549;SDS011;73079;52.914;-0.982;2023-11-19T07:22:03;28.95;;;6.10;;
53549;SDS011;73079;52.914;-0.982;2023-11-19T07:24:30;28.20;;;4.90;;
53549;SDS011;73079;52.914;-0.982;2023-11-19T07:26:56;20.50;;;4.95;;
53549;SDS011;73079;52.914;-0.982;2023-11-19T07:29:22;22.45;;;5.22;;
53549;SDS011;73079;52.914;-0.982;2023-11-19T07:31:50;21.95;;;4.68;;
53549;SDS011;73079;52.914;-0.982;2023-11-19T07:34:17;15.50;;;4.90;;
53549;SDS011;73079;52.914;-0.982;2023-11-19T07:36:48;25.23;;;5.45;;
53549;SDS011;73079;52.914;-0.982;2023-11-19T07:39:14;23.20;;;3.88;;
53549;SDS011;73079;52.914;-0.982;2023-11-19T07:41:40;23.85;;;4.57;;
53549;SDS011;73079;52.914;-0.982;2023-11-19T07:44:06;19.83;;;5.28;;
53549;SDS011;73079;52.914;-0.982;2023-11-19T07:46:32;22.02;;;4.97;;
53549;SDS011;73079;52.914;-0.982;2023-11-19T07:48:58;23.92;;;4.80;;
53549;SDS011;73079;52.914;-0.982;2023-11-19T07:51:24;19.85;;;5.35;;
53549;SDS011;73079;52.914;-0.982;2023-11-19T07:53:52;30.05;;;5.35;;
53549;SDS011;73079;52.914;-0.982;2023-11-19T07:56:18;23.00;;;4.95;;
53549;SDS011;73079;52.914;-0.982;2023-11-19T07:58:44;21.25;;;5.13;;
53549;SDS011;73079;52.914;-0.982;2023-11-19T08:01:13;22.17;;;5.35;;
53549;SDS011;73079;52.914;-0.982;2023-11-19T08:03:43;17.95;;;4.30;;
53549;SDS011;73079;52.914;-0.982;2023-11-19T08:06:12;15.43;;;3.50;;
53549;SDS011;73079;52.914;-0.982;2023-11-19T08:08:42;21.27;;;4.57;;
53549;SDS011;73079;52.914;-0.982;2023-11-19T08:11:10;18.73;;;4.47;;
53549;SDS011;73079;52.914;-0.982;2023-11-19T08:13:41;19.23;;;4.47;;
53549;SDS011;73079;52.914;-0.982;2023-11-19T08:16:11;23.08;;;4.70;;
53549;SDS011;73079;52.914;-0.982;2023-11-19T08:18:37;17.35;;;5.05;;
53549;SDS011;73079;52.914;-0.982;2023-11-19T08:21:03;17.30;;;4.60;;
53549;SDS011;73079;52.914;-0.982;2023-11-19T08:23:33;22.08;;;4.68;;
53549;SDS011;73079;52.914;-0.982;2023-11-19T08:25:59;21.15;;;4.85;;
53549;SDS011;73079;52.914;-0.982;2023-11-19T08:28:27;17.23;;;4.15;;
53549;SDS011;73079;52.914;-0.982;2023-11-19T08:30:53;22.63;;;5.05;;
53549;SDS011;73079;52.914;-0.982;2023-11-19T08:33:19;23.17;;;4.90;;
53549;SDS011;73079;52.914;-0.982;2023-11-19T08:35:47;15.70;;;4.03;;
53549;SDS011;73079;52.914;-0.982;2023-11-19T08:38:14;18.10;;;4.80;;
53549;SDS011;73079;52.914;-0.982;2023-11-19T08:40:40;19.27;;;4.47;;
53549;SDS011;73079;52.914;-0.982;2023-11-19T08:43:06;22.08;;;5.03;;
53549;SDS011;73079;52.914;-0.982;2023-11-19T08:48:16;20.88;;;4.03;;
53549;SDS011;73079;52.914;-0.982;2023-11-19T08:50:42;18.98;;;4.47;;
53549;SDS011;73079;52.914;-0.982;2023-11-19T08:53:09;16.08;;;5.18;;
53549;SDS011;73079;52.914;-0.982;2023-11-19T08:55:35;14.15;;;4.10;;
53549;SDS011;73079;52.914;-0.982;2023-11-19T08:58:01;15.77;;;3.85;;
53549;SDS011;73079;52.914;-0.982;2023-11-19T09:00:27;15.00;;;3.97;;
53549;SDS011;73079;52.914;-0.982;2023-11-19T09:02:55;18.08;;;4.15;;
53549;SDS011;73079;52.914;-0.982;2023-11-19T09:05:23;16.15;;;4.05;;
53549;SDS011;73079;52.914;-0.982;2023-11-19T09:07:49;20.88;;;4.40;;
53549;SDS011;73079;52.914;-0.982;2023-11-19T09:10:18;16.85;;;4.07;;
53549;SDS011;73079;52.914;-0.982;2023-11-19T09:12:44;14.10;;;3.45;;
53549;SDS011;73079;52.914;-0.982;2023-11-19T09:15:10;13.25;;;3.53;;
53549;SDS011;73079;52.914;-0.982;2023-11-19T09:17:37;12.10;;;2.97;;
53549;SDS011;73079;52.914;-0.982;2023-11-19T09:20:06;11.73;;;3.20;;
53549;SDS011;73079;52.914;-0.982;2023-11-19T09:22:34;15.27;;;3.83;;
53549;SDS011;73079;52.914;-0.982;2023-11-19T09:25:00;17.45;;;3.88;;
53549;SDS011;73079;52.914;-0.982;2023-11-19T09:27:34;19.45;;;3.80;;
53549;SDS011;73079;52.914;-0.982;2023-11-19T09:30:00;16.20;;;3.63;;
53549;SDS011;73079;52.914;-0.982;2023-11-19T09:32:26;22.48;;;4.53;;
53549;SDS011;73079;52.914;-0.982;2023-11-19T09:34:53;16.40;;;3.88;;
53549;SDS011;73079;52.914;-0.982;2023-11-19T09:37:21;18.65;;;3.83;;
53549;SDS011;73079;52.914;-0.982;2023-11-19T09:39:47;18.23;;;4.25;;
53549;SDS011;73079;52.914;-0.982;2023-11-19T09:42:13;23.45;;;4.70;;
53549;SDS011;73079;52.914;-0.982;2023-11-19T09:44:39;21.08;;;4.60;;
53549;SDS011;73079;52.914;-0.982;2023-11-19T09:47:08;19.13;;;4.70;;
53549;SDS011;73079;52.914;-0.982;2023-11-19T09:49:35;22.33;;;4.35;;
53549;SDS011;73079;52.914;-0.982;2023-11-19T09:52:02;22.65;;;5.15;;
53549;SDS011;73079;52.914;-0.982;2023-11-19T09:54:30;18.75;;;4.35;;
53549;SDS011;73079;52.914;-0.982;2023-11-19T09:56:57;25.65;;;4.60;;
53549;SDS011;73079;52.914;-0.982;2023-11-19T09:59:28;19.38;;;4.38;;
53549;SDS011;73079;52.914;-0.982;2023-11-19T10:01:54;18.88;;;4.55;;
53549;SDS011;73079;52.914;-0.982;2023-11-19T10:04:22;21.17;;;5.30;;
53549;SDS011;73079;52.914;-0.982;2023-11-19T10:06:49;19.33;;;4.75;;
53549;SDS011;73079;52.914;-0.982;2023-11-19T10:09:15;17.40;;;3.92;;
53549;SDS011;73079;52.914;-0.982;2023-11-19T10:11:43;17.05;;;4.07;;
53549;SDS011;73079;52.914;-0.982;2023-11-19T10:14:09;20.15;;;4.70;;
53549;SDS011;73079;52.914;-0.982;2023-11-19T10:16:35;18.88;;;4.80;;
53549;SDS011;73079;52.914;-0.982;2023-11-19T10:19:01;15.00;;;3.67;;
53549;SDS011;73079;52.914;-0.982;2023-11-19T10:21:27;19.20;;;4.15;;
53549;SDS011;73079;52.914;-0.982;2023-11-19T10:23:55;20.35;;;4.78;;
53549;SDS011;73079;52.914;-0.982;2023-11-19T10:26:23;17.30;;;4.38;;
53549;SDS011;73079;52.914;-0.982;2023-11-19T10:28:50;20.10;;;4.90;;
53549;SDS011;73079;52.914;-0.982;2023-11-19T10:31:20;18.33;;;4.05;;
53549;SDS011;73079;52.914;-0.982;2023-11-19T10:33:52;17.58;;;4.57;;
53549;SDS011;73079;52.914;-0.982;2023-11-19T10:36:19;16.10;;;4.18;;
53549;SDS011;73079;52.914;-0.982;2023-11-19T10:38:52;17.73;;;4.38;;
53549;SDS011;73079;52.914;-0.982;2023-11-19T10:41:26;18.17;;;4.57;;
53549;SDS011;73079;52.914;-0.982;2023-11-19T10:43:57;16.10;;;4.30;;
53549;SDS011;73079;52.914;-0.982;2023-11-19T10:46:23;23.83;;;5.72;;
53549;SDS011;73079;52.914;-0.982;2023-11-19T10:49:02;17.88;;;3.83;;
53549;SDS011;73079;52.914;-0.982;2023-11-19T10:51:28;17.75;;;4.30;;
53549;SDS011;73079;52.914;-0.982;2023-11-19T10:53:54;19.23;;;4.55;;
53549;SDS011;73079;52.914;-0.982;2023-11-19T10:56:26;18.60;;;4.60;;
53549;SDS011;73079;52.914;-0.982;2023-11-19T10:58:57;19.75;;;4.20;;
53549;SDS011;73079;52.914;-0.982;2023-11-19T11:01:25;15.88;;;3.88;;
53549;SDS011;73079;52.914;-0.982;2023-11-19T11:03:58;14.88;;;4.35;;
53549;SDS011;73079;52.914;-0.982;2023-11-19T11:06:26;13.13;;;3.20;;
53549;SDS011;73079;52.914;-0.982;2023-11-19T11:08:52;16.58;;;3.78;;
53549;SDS011;73079;52.914;-0.982;2023-11-19T11:11:20;24.95;;;4.20;;
53549;SDS011;73079;52.914;-0.982;2023-11-19T11:13:50;13.80;;;3.42;;
53549;SDS011;73079;52.914;-0.982;2023-11-19T11:16:20;16.70;;;3.80;;
53549;SDS011;73079;52.914;-0.982;2023-11-19T11:18:48;13.63;;;3.58;;
53549;SDS011;73079;52.914;-0.982;2023-11-19T11:21:15;14.75;;;3.63;;
53549;SDS011;73079;52.914;-0.982;2023-11-19T11:23:54;10.48;;;3.00;;
53549;SDS011;73079;52.914;-0.982;2023-11-19T11:26:39;11.95;;;3.17;;
53549;SDS011;73079;52.914;-0.982;2023-11-19T11:29:20;14.00;;;3.20;;
53549;SDS011;73079;52.914;-0.982;2023-11-19T11:31:54;13.70;;;3.42;;
53549;SDS011;73079;52.914;-0.982;2023-11-19T11:34:38;11.90;;;3.15;;
53549;SDS011;73079;52.914;-0.982;2023-11-19T11:37:18;15.52;;;4.07;;
53549;SDS011;73079;52.914;-0.982;2023-11-19T11:39:46;17.30;;;4.43;;
53549;SDS011;73079;52.914;-0.982;2023-11-19T11:42:30;16.50;;;4.50;;
53549;SDS011;73079;52.914;-0.982;2023-11-19T11:45:00;12.23;;;4.00;;
53549;SDS011;73079;52.914;-0.982;2023-11-19T11:50:52;17.08;;;4.72;;
53549;SDS011;73079;52.914;-0.982;2023-11-19T11:53:20;22.50;;;5.78;;
53549;SDS011;73079;52.914;-0.982;2023-11-19T11:55:57;24.85;;;4.95;;
53549;SDS011;73079;52.914;-0.982;2023-11-19T11:58:35;21.00;;;5.70;;
53549;SDS011;73079;52.914;-0.982;2023-11-19T12:01:03;19.17;;;4.78;;
53549;SDS011;73079;52.914;-0.982;2023-11-19T12:03:32;18.45;;;4.55;;
53549;SDS011;73079;52.914;-0.982;2023-11-19T12:05:59;22.73;;;5.20;;
53549;SDS011;73079;52.914;-0.982;2023-11-19T12:08:26;17.08;;;4.20;;
53549;SDS011;73079;52.914;-0.982;2023-11-19T12:10:56;20.45;;;4.13;;
53549;SDS011;73079;52.914;-0.982;2023-11-19T12:13:42;20.80;;;5.55;;
53549;SDS011;73079;52.914;-0.982;2023-11-19T12:16:13;18.75;;;4.32;;
53549;SDS011;73079;52.914;-0.982;2023-11-19T12:18:39;13.13;;;3.40;;
53549;SDS011;73079;52.914;-0.982;2023-11-19T12:21:07;17.30;;;4.43;;
53549;SDS011;73079;52.914;-0.982;2023-11-19T12:23:35;11.25;;;3.22;;
53549;SDS011;73079;52.914;-0.982;2023-11-19T12:26:15;7.10;;;2.63;;
53549;SDS011;73079;52.914;-0.982;2023-11-19T12:28:56;18.85;;;4.18;;
53549;SDS011;73079;52.914;-0.982;2023-11-19T12:31:24;15.65;;;3.13;;
53549;SDS011;73079;52.914;-0.982;2023-11-19T12:33:52;13.02;;;2.92;;
53549;SDS011;73079;52.914;-0.982;2023-11-19T12:36:24;13.32;;;3.10;;
53549;SDS011;73079;52.914;-0.982;2023-11-19T12:38:53;15.48;;;3.90;;
53549;SDS011;73079;52.914;-0.982;2023-11-19T12:41:21;10.73;;;3.00;;
53549;SDS011;73079;52.914;-0.982;2023-11-19T12:43:49;10.45;;;2.53;;
53549;SDS011;73079;52.914;-0.982;2023-11-19T12:46:19;11.88;;;3.55;;
53549;SDS011;73079;52.914;-0.982;2023-11-19T12:48:45;9.35;;;2.85;;
53549;SDS011;73079;52.914;-0.982;2023-11-19T12:51:12;8.88;;;2.53;;
53549;SDS011;73079;52.914;-0.982;2023-11-19T12:53:48;7.40;;;2.30;;
53549;SDS011;73079;52.914;-0.982;2023-11-19T12:56:15;9.35;;;2.60;;
53549;SDS011;73079;52.914;-0.982;2023-11-19T12:58:42;11.52;;;2.45;;
53549;SDS011;73079;52.914;-0.982;2023-11-19T13:01:08;8.98;;;2.38;;
53549;SDS011;73079;52.914;-0.982;2023-11-19T13:03:38;7.25;;;2.47;;
53549;SDS011;73079;52.914;-0.982;2023-11-19T13:06:04;10.45;;;2.60;;
53549;SDS011;73079;52.914;-0.982;2023-11-19T13:08:36;9.27;;;2.33;;
53549;SDS011;73079;52.914;-0.982;2023-11-19T13:11:05;7.43;;;2.35;;
53549;SDS011;73079;52.914;-0.982;2023-11-19T13:13:33;7.78;;;2.45;;
53549;SDS011;73079;52.914;-0.982;2023-11-19T13:16:15;8.10;;;2.45;;
53549;SDS011;73079;52.914;-0.982;2023-11-19T13:18:42;7.93;;;2.03;;
53549;SDS011;73079;52.914;-0.982;2023-11-19T13:21:08;8.20;;;2.33;;
53549;SDS011;73079;52.914;-0.982;2023-11-19T13:23:34;6.90;;;2.17;;
53549;SDS011;73079;52.914;-0.982;2023-11-19T13:26:00;5.47;;;1.83;;
53549;SDS011;73079;52.914;-0.982;2023-11-19T13:28:27;10.57;;;2.20;;
53549;SDS011;73079;52.914;-0.982;2023-11-19T13:30:54;6.63;;;2.22;;
53549;SDS011;73079;52.914;-0.982;2023-11-19T13:33:20;13.82;;;2.40;;
53549;SDS011;73079;52.914;-0.982;2023-11-19T13:35:46;5.70;;;2.10;;
53549;SDS011;73079;52.914;-0.982;2023-11-19T13:38:14;9.68;;;2.17;;
53549;SDS011;73079;52.914;-0.982;2023-11-19T13:40:40;4.88;;;1.98;;
53549;SDS011;73079;52.914;-0.982;2023-11-19T13:43:06;5.45;;;1.80;;
53549;SDS011;73079;52.914;-0.982;2023-11-19T13:45:34;5.07;;;2.00;;
53549;SDS011;73079;52.914;-0.982;2023-11-19T13:48:01;4.60;;;1.67;;
53549;SDS011;73079;52.914;-0.982;2023-11-19T13:50:30;7.35;;;1.90;;
53549;SDS011;73079;52.914;-0.982;2023-11-19T13:52:57;9.27;;;2.33;;
53549;SDS011;73079;52.914;-0.982;2023-11-19T13:55:23;5.18;;;1.80;;
53549;SDS011;73079;52.914;-0.982;2023-11-19T13:57:50;6.45;;;1.80;;
53549;SDS011;73079;52.914;-0.982;2023-11-19T14:00:16;6.75;;;1.60;;
53549;SDS011;73079;52.914;-0.982;2023-11-19T14:02:45;5.85;;;1.77;;
53549;SDS011;73079;52.914;-0.982;2023-11-19T14:05:13;3.92;;;1.40;;
53549;SDS011;73079;52.914;-0.982;2023-11-19T14:07:41;4.95;;;1.65;;
53549;SDS011;73079;52.914;-0.982;2023-11-19T14:10:10;6.88;;;1.67;;
53549;SDS011;73079;52.914;-0.982;2023-11-19T14:12:37;8.45;;;2.13;;
53549;SDS011;73079;52.914;-0.982;2023-11-19T14:15:03;9.50;;;3.10;;
53549;SDS011;73079;52.914;-0.982;2023-11-19T14:17:34;8.20;;;3.15;;
53549;SDS011;73079;52.914;-0.982;2023-11-19T14:20:02;88.00;;;34.30;;
53549;SDS011;73079;52.914;-0.982;2023-11-19T14:22:38;15.88;;;6.70;;
53549;SDS011;73079;52.914;-0.982;2023-11-19T14:25:04;12.98;;;4.72;;
53549;SDS011;73079;52.914;-0.982;2023-11-19T14:27:35;32.83;;;12.20;;
53549;SDS011;73079;52.914;-0.982;2023-11-19T14:30:02;7.75;;;2.65;;
53549;SDS011;73079;52.914;-0.982;2023-11-19T14:32:29;7.93;;;2.63;;